createdAt,value
2023-03-07T00:02:58.653Z,212604.00
2023-03-07T00:09:02.441Z,212666.00
2023-03-07T00:15:05.025Z,212596.00
2023-03-07T00:21:10.289Z,212519.00
2023-03-07T00:27:12.406Z,212447.00
2023-03-07T00:33:14.855Z,212385.00
2023-03-07T00:39:17.282Z,212242.00
2023-03-07T00:45:19.579Z,212100.00
2023-03-07T00:51:23.927Z,212031.00
2023-03-07T00:57:26.061Z,215993.00
2023-03-07T01:03:28.530Z,215848.00
2023-03-07T01:09:30.674Z,215714.00
2023-03-07T01:15:33.270Z,215591.00
2023-03-07T01:21:40.054Z,215484.00
2023-03-07T01:27:42.282Z,215381.00
2023-03-07T01:33:44.547Z,215255.00
2023-03-07T01:39:46.878Z,215194.00
2023-03-07T01:45:52.214Z,215126.00
2023-03-07T01:51:58.541Z,215086.00
2023-03-07T01:58:09.132Z,215051.00
2023-03-07T02:04:21.494Z,214978.00
2023-03-07T02:10:24.671Z,214958.00
2023-03-07T02:16:28.293Z,214958.00
2023-03-07T02:22:31.183Z,214917.00
2023-03-07T02:28:34.625Z,214883.00
2023-03-07T02:34:37.785Z,214919.00
2023-03-07T02:40:45.042Z,214986.00
2023-03-07T02:46:47.901Z,215018.00
2023-03-07T02:52:50.747Z,215037.00
2023-03-07T02:58:53.352Z,214992.00
2023-03-07T03:04:55.707Z,214939.00
2023-03-07T03:10:58.964Z,214903.00
2023-03-07T03:17:04.248Z,214911.00
2023-03-07T03:23:06.708Z,214883.00
2023-03-07T03:29:10.233Z,214837.00
2023-03-07T03:35:14.767Z,214796.00
2023-03-07T03:41:17.643Z,214809.00
2023-03-07T03:47:22.387Z,214883.00
2023-03-07T03:53:24.727Z,214978.00
2023-03-07T03:59:27.378Z,215120.00
2023-03-07T04:05:29.739Z,215227.00
2023-03-07T04:11:33.040Z,215314.00
2023-03-07T04:17:36.042Z,215443.00
2023-03-07T04:23:39.616Z,215518.00
2023-03-07T04:29:42.094Z,215599.00
2023-03-07T04:35:57.005Z,215680.00
2023-03-07T04:41:59.324Z,215734.00
2023-03-07T04:48:05.881Z,215775.00
2023-03-07T04:54:10.992Z,215789.00
2023-03-07T05:00:14.054Z,215816.00
2023-03-07T05:06:17.353Z,215937.00
2023-03-07T05:12:25.283Z,216026.00
2023-03-07T05:18:29.171Z,212031.00
2023-03-07T05:24:33.401Z,212122.00
2023-03-07T05:30:36.621Z,212203.00
2023-03-07T05:36:38.835Z,212447.00
2023-03-07T05:42:41.314Z,212925.00
2023-03-07T05:48:43.642Z,212995.00
2023-03-07T05:54:47.071Z,212774.00
2023-03-07T06:00:49.801Z,212925.00
2023-03-07T06:06:53.576Z,213950.00
2023-03-07T06:12:56.301Z,213864.00
2023-03-07T06:18:58.500Z,213776.00
2023-03-07T06:25:01.089Z,216874.00
2023-03-07T06:31:12.835Z,217744.00
2023-03-07T06:37:15.417Z,217482.00
2023-03-07T06:43:18.128Z,220623.00
2023-03-07T06:49:20.457Z,221758.00
2023-03-07T06:55:24.022Z,219499.00
2023-03-07T07:01:26.417Z,219070.00
2023-03-07T07:07:31.191Z,221315.00
2023-03-07T07:13:34.754Z,222891.00
2023-03-07T07:19:37.987Z,222821.00
2023-03-07T07:25:40.199Z,223166.00
2023-03-07T07:31:42.610Z,223256.00
2023-03-07T07:37:45.581Z,223577.00
2023-03-07T07:43:50.287Z,224077.00
2023-03-07T07:50:09.440Z,223932.00
2023-03-07T07:56:11.855Z,224363.00
2023-03-07T08:02:14.165Z,224857.00
2023-03-07T08:08:17.314Z,224697.00
2023-03-07T08:14:19.737Z,225253.00
2023-03-07T08:20:24.131Z,225067.00
2023-03-07T08:26:26.846Z,225285.00
2023-03-07T08:32:28.979Z,224976.00
2023-03-07T08:38:31.700Z,225051.00
2023-03-07T08:44:34.254Z,225145.00
2023-03-07T08:50:37.115Z,225861.00
2023-03-07T08:56:39.382Z,225438.00
2023-03-07T09:02:41.666Z,225459.00
2023-03-07T09:08:44.265Z,224646.00
2023-03-07T09:14:46.264Z,224728.00
2023-03-07T09:20:48.361Z,224548.00
2023-03-07T09:26:50.539Z,224347.00
2023-03-07T09:32:52.893Z,225051.00
2023-03-07T09:38:58.133Z,224271.00
2023-03-07T09:45:21.299Z,222634.00
2023-03-07T09:51:43.080Z,221888.00
2023-03-07T09:57:51.825Z,222131.00
2023-03-07T10:03:59.573Z,222213.00
2023-03-07T10:10:05.605Z,221882.00
2023-03-07T10:16:37.489Z,221193.00
2023-03-07T10:22:49.511Z,221068.00
2023-03-07T10:28:53.156Z,220789.00
2023-03-07T10:35:02.402Z,220704.00
2023-03-07T10:41:14.159Z,220908.00
2023-03-07T10:47:21.285Z,220742.00
2023-03-07T10:53:27.128Z,221373.00
2023-03-07T10:59:29.410Z,221828.00
2023-03-07T11:05:36.523Z,222624.00
2023-03-07T11:11:38.987Z,223456.00
2023-03-07T11:17:49.194Z,223628.00
2023-03-07T11:24:06.717Z,223884.00
2023-03-07T11:30:15.159Z,223671.00
2023-03-07T11:36:22.934Z,223762.00
2023-03-07T11:42:41.262Z,224481.00
2023-03-07T11:49:05.052Z,223180.00
2023-03-07T11:55:19.564Z,223970.00
2023-03-07T12:01:34.795Z,224137.00
2023-03-07T12:07:57.667Z,224503.00
2023-03-07T12:14:16.537Z,223270.00
2023-03-07T12:20:38.010Z,222656.00
2023-03-07T12:27:26.757Z,221609.00
2023-03-07T12:33:46.925Z,221484.00
2023-03-07T12:40:00.588Z,221609.00
2023-03-07T12:46:34.506Z,220702.00
2023-03-07T12:53:09.804Z,220833.00
2023-03-07T12:59:14.113Z,220463.00
2023-03-07T13:05:20.279Z,220071.00
2023-03-07T13:11:25.326Z,219774.00
2023-03-07T13:17:27.457Z,219883.00
2023-03-07T13:23:30.267Z,220152.00
2023-03-07T13:30:09.980Z,219962.00
2023-03-07T13:36:32.516Z,219913.00
2023-03-07T13:42:48.986Z,219817.00
2023-03-07T13:48:54.201Z,219733.00
2023-03-07T13:54:57.537Z,219363.00
2023-03-07T14:01:04.763Z,219155.00
2023-03-07T14:07:32.342Z,218802.00
2023-03-07T14:13:53.806Z,218601.00
2023-03-07T14:20:46.734Z,218486.00
2023-03-07T14:26:53.239Z,218515.00
2023-03-07T14:32:55.652Z,218409.00
2023-03-07T14:39:02.534Z,218330.00
2023-03-07T14:45:23.333Z,218308.00
2023-03-07T14:51:28.590Z,218188.00
2023-03-07T14:57:40.082Z,218102.00
2023-03-07T15:03:54.067Z,218001.00
2023-03-07T15:09:56.459Z,218001.00
2023-03-07T15:16:04.037Z,217916.00
2023-03-07T15:22:28.243Z,217744.00
2023-03-07T15:28:34.060Z,217610.00
2023-03-07T15:34:38.869Z,217475.00
2023-03-07T15:40:41.360Z,217291.00
2023-03-07T15:46:50.339Z,217176.00
2023-03-07T15:52:55.426Z,217038.00
2023-03-07T15:59:02.992Z,216942.00
2023-03-07T16:05:27.622Z,216832.00
2023-03-07T16:11:29.885Z,216719.00
2023-03-07T16:17:37.797Z,216647.00
2023-03-07T16:23:40.565Z,216549.00
2023-03-07T16:29:43.613Z,216472.00
2023-03-07T16:35:45.596Z,216406.00
2023-03-07T16:41:49.604Z,216345.00
2023-03-07T16:47:57.630Z,216254.00
2023-03-07T16:54:03.054Z,216163.00
2023-03-07T17:00:06.733Z,216163.00
2023-03-07T17:06:14.930Z,216196.00
2023-03-07T17:12:25.941Z,216268.00
2023-03-07T17:18:30.286Z,216296.00
2023-03-07T17:24:32.990Z,216288.00
2023-03-07T17:30:35.362Z,216268.00
2023-03-07T17:36:37.844Z,216240.00
2023-03-07T17:42:42.373Z,216224.00
2023-03-07T17:48:44.809Z,216191.00
2023-03-07T17:54:47.928Z,216163.00
2023-03-07T18:00:50.549Z,216106.00
2023-03-07T18:06:52.895Z,216043.00
2023-03-07T18:12:55.406Z,215965.00
2023-03-07T18:19:00.237Z,215915.00
2023-03-07T18:25:06.790Z,215819.00
2023-03-07T18:31:12.259Z,215750.00
2023-03-07T18:37:16.511Z,215656.00
2023-03-07T18:43:18.829Z,215588.00
2023-03-07T18:49:20.965Z,215510.00
2023-03-07T18:55:23.095Z,215427.00
2023-03-07T19:01:28.154Z,215405.00
2023-03-07T19:07:31.615Z,215385.00
2023-03-07T19:13:34.128Z,215348.00
2023-03-07T19:19:36.522Z,215323.00
2023-03-07T19:25:38.551Z,215261.00
2023-03-07T19:31:44.003Z,215281.00
2023-03-07T19:37:46.335Z,215253.00
2023-03-07T19:43:48.889Z,215239.00
2023-03-07T19:49:51.188Z,215182.00
2023-03-07T19:55:53.904Z,215092.00
2023-03-07T20:01:56.194Z,214988.00
2023-03-07T20:07:58.319Z,214875.00
2023-03-07T20:14:02.454Z,214745.00
2023-03-07T20:20:07.651Z,214667.00
2023-03-07T20:26:13.437Z,214626.00
2023-03-07T20:32:15.914Z,214551.00
2023-03-07T20:38:18.539Z,214488.00
2023-03-07T20:44:20.951Z,214384.00
2023-03-07T20:50:23.982Z,214341.00
2023-03-07T20:56:29.030Z,214294.00
2023-03-07T21:02:31.996Z,214488.00
2023-03-07T21:08:35.695Z,214496.00
2023-03-07T21:14:38.030Z,214515.00
2023-03-07T21:20:40.474Z,214446.00
2023-03-07T21:26:42.739Z,214390.00
2023-03-07T21:32:52.747Z,214363.00
2023-03-07T21:38:58.056Z,214626.00
2023-03-07T21:45:00.384Z,214695.00
2023-03-07T21:51:03.417Z,214773.00
2023-03-07T21:57:05.667Z,214833.00
2023-03-07T22:03:08.352Z,214889.00
2023-03-07T22:09:10.886Z,214952.00
2023-03-07T22:15:13.150Z,214974.00
2023-03-07T22:21:17.391Z,214968.00
2023-03-07T22:27:20.154Z,214980.00
2023-03-07T22:33:22.668Z,215052.00
2023-03-07T22:39:25.144Z,215066.00
2023-03-07T22:45:27.285Z,215044.00
2023-03-07T22:51:29.779Z,215030.00
2023-03-07T22:57:32.319Z,214883.00
2023-03-07T23:03:34.747Z,214793.00
2023-03-07T23:09:36.941Z,214648.00
2023-03-07T23:15:42.347Z,214502.00
2023-03-07T23:21:44.740Z,214355.00
2023-03-07T23:27:46.898Z,214225.00
2023-03-07T23:33:49.528Z,214141.00
2023-03-07T23:39:52.742Z,214033.00
2023-03-07T23:45:54.953Z,213969.00
2023-03-07T23:51:57.729Z,213844.00
2023-03-07T23:57:59.789Z,213762.00
